createdAt,value
2023-03-29T00:02:35.358Z,1.70
2023-03-29T00:05:08.562Z,1.33
2023-03-29T00:08:02.465Z,1.53
2023-03-29T00:10:37.451Z,2.10
2023-03-29T00:13:17.818Z,2.10
2023-03-29T00:15:48.836Z,1.70
2023-03-29T00:18:17.310Z,1.33
2023-03-29T00:20:47.684Z,2.10
2023-03-29T00:23:20.767Z,2.30
2023-03-29T00:25:54.240Z,2.17
2023-03-29T00:28:33.362Z,1.70
2023-03-29T00:31:13.854Z,2.70
2023-03-29T00:33:44.574Z,1.87
2023-03-29T00:36:17.310Z,2.40
2023-03-29T00:38:48.063Z,2.50
2023-03-29T00:41:19.589Z,1.93
2023-03-29T00:43:56.119Z,2.60
2023-03-29T00:46:30.415Z,1.93
2023-03-29T00:49:05.449Z,1.90
2023-03-29T00:51:41.098Z,2.20
2023-03-29T00:54:16.382Z,1.70
2023-03-29T00:57:08.386Z,2.00
2023-03-29T00:59:42.842Z,1.93
2023-03-29T01:02:17.989Z,1.87
2023-03-29T01:04:54.129Z,2.00
2023-03-29T01:07:32.702Z,2.47
2023-03-29T01:10:12.641Z,2.20
2023-03-29T01:12:59.409Z,1.63
2023-03-29T01:15:33.754Z,2.10
2023-03-29T01:18:05.492Z,2.00
2023-03-29T01:20:51.441Z,2.53
2023-03-29T01:23:44.185Z,1.90
2023-03-29T01:26:19.818Z,2.77
2023-03-29T01:29:02.132Z,2.37
2023-03-29T01:31:45.798Z,2.10
2023-03-29T01:34:20.471Z,2.60
2023-03-29T01:36:54.772Z,2.40
2023-03-29T01:39:23.837Z,2.70
2023-03-29T01:42:01.160Z,1.73
2023-03-29T01:44:34.106Z,2.67
2023-03-29T01:47:12.943Z,2.00
2023-03-29T01:49:52.556Z,2.50
2023-03-29T01:52:24.506Z,2.80
2023-03-29T01:55:08.167Z,2.43
2023-03-29T01:57:38.064Z,2.03
2023-03-29T02:00:16.302Z,2.40
2023-03-29T02:02:48.082Z,2.30
2023-03-29T02:05:17.999Z,2.30
2023-03-29T02:07:56.902Z,2.73
2023-03-29T02:10:27.621Z,1.77
2023-03-29T02:12:56.123Z,1.90
2023-03-29T02:15:28.100Z,1.57
2023-03-29T02:17:59.246Z,2.60
2023-03-29T02:20:30.860Z,2.57
2023-03-29T02:23:07.551Z,2.90
2023-03-29T02:25:38.064Z,2.00
2023-03-29T02:28:12.254Z,2.57
2023-03-29T02:30:49.917Z,2.77
2023-03-29T02:33:25.223Z,2.40
2023-03-29T02:35:59.346Z,2.30
2023-03-29T02:38:34.800Z,2.70
2023-03-29T02:41:23.499Z,2.03
2023-03-29T02:43:58.075Z,2.57
2023-03-29T02:46:31.959Z,2.57
2023-03-29T02:49:01.795Z,2.37
2023-03-29T02:51:42.901Z,3.03
2023-03-29T02:54:15.118Z,2.27
2023-03-29T02:56:48.733Z,2.57
2023-03-29T02:59:17.991Z,2.10
2023-03-29T03:01:50.173Z,2.53
2023-03-29T03:04:22.324Z,3.17
2023-03-29T03:06:55.853Z,2.77
2023-03-29T03:09:28.970Z,2.43
2023-03-29T03:12:00.107Z,2.27
2023-03-29T03:14:31.922Z,2.50
2023-03-29T03:17:04.864Z,2.23
2023-03-29T03:19:41.800Z,2.33
2023-03-29T03:22:12.578Z,2.07
2023-03-29T03:24:41.698Z,2.90
2023-03-29T03:27:11.298Z,3.47
2023-03-29T03:29:41.992Z,2.93
2023-03-29T03:32:13.965Z,2.90
2023-03-29T03:34:44.188Z,2.70
2023-03-29T03:37:16.312Z,2.60
2023-03-29T03:39:45.176Z,2.73
2023-03-29T03:42:17.138Z,2.67
2023-03-29T03:44:48.824Z,2.80
2023-03-29T03:47:31.861Z,1.93
2023-03-29T03:50:03.404Z,1.97
2023-03-29T03:52:34.644Z,2.70
2023-03-29T03:55:05.558Z,2.10
2023-03-29T03:57:37.773Z,2.07
2023-03-29T04:00:19.913Z,1.90
2023-03-29T04:02:51.220Z,2.33
2023-03-29T04:05:23.473Z,1.87
2023-03-29T04:07:58.070Z,2.40
2023-03-29T04:10:35.937Z,1.60
2023-03-29T04:13:10.136Z,2.27
2023-03-29T04:15:40.083Z,2.50
2023-03-29T04:18:10.711Z,2.17
2023-03-29T04:20:47.878Z,2.03
2023-03-29T04:23:17.758Z,2.27
2023-03-29T04:26:00.169Z,1.77
2023-03-29T04:28:30.070Z,1.97
2023-03-29T04:31:00.888Z,2.27
2023-03-29T04:33:34.717Z,2.90
2023-03-29T04:36:04.355Z,1.50
2023-03-29T04:38:37.215Z,1.70
2023-03-29T04:41:09.218Z,1.83
2023-03-29T04:43:40.425Z,1.70
2023-03-29T04:46:18.453Z,2.33
2023-03-29T04:48:55.176Z,2.07
2023-03-29T04:51:25.741Z,1.97
2023-03-29T04:53:55.355Z,2.00
2023-03-29T04:56:26.509Z,2.20
2023-03-29T04:58:58.654Z,2.50
2023-03-29T05:01:51.859Z,2.30
2023-03-29T05:04:21.925Z,2.40
2023-03-29T05:06:54.038Z,2.50
2023-03-29T05:09:26.973Z,2.23
2023-03-29T05:12:02.576Z,2.70
2023-03-29T05:14:36.726Z,2.60
2023-03-29T05:17:09.177Z,2.60
2023-03-29T05:19:50.862Z,3.30
2023-03-29T05:22:19.554Z,2.67
2023-03-29T05:24:55.372Z,2.80
2023-03-29T05:27:29.278Z,2.53
2023-03-29T05:30:11.156Z,2.53
2023-03-29T05:32:53.380Z,2.20
2023-03-29T05:35:24.729Z,2.23
2023-03-29T05:37:56.827Z,2.30
2023-03-29T05:40:27.274Z,2.00
2023-03-29T05:43:01.966Z,2.00
2023-03-29T05:45:35.864Z,1.90
2023-03-29T05:48:05.672Z,1.73
2023-03-29T05:50:39.390Z,2.20
2023-03-29T05:53:15.192Z,1.83
2023-03-29T05:55:48.473Z,1.50
2023-03-29T05:58:25.049Z,2.30
2023-03-29T06:00:57.887Z,1.77
2023-03-29T06:03:29.894Z,1.70
2023-03-29T06:06:02.426Z,2.40
2023-03-29T06:08:31.583Z,2.83
2023-03-29T06:11:05.188Z,2.10
2023-03-29T06:13:39.131Z,1.77
2023-03-29T06:16:10.572Z,1.87
2023-03-29T06:18:44.754Z,2.40
2023-03-29T06:21:17.413Z,2.30
2023-03-29T06:23:48.771Z,1.90
2023-03-29T06:26:25.444Z,2.00
2023-03-29T06:28:55.631Z,2.40
2023-03-29T06:31:27.914Z,2.77
2023-03-29T06:34:00.144Z,2.20
2023-03-29T06:39:33.497Z,2.23
2023-03-29T06:42:20.233Z,3.17
2023-03-29T06:44:49.592Z,2.60
2023-03-29T06:47:22.225Z,2.87
2023-03-29T06:49:57.349Z,3.57
2023-03-29T06:52:27.818Z,2.97
2023-03-29T06:54:56.088Z,2.50
2023-03-29T06:57:24.883Z,2.20
2023-03-29T06:59:55.206Z,2.30
2023-03-29T07:02:26.033Z,1.67
2023-03-29T07:05:12.464Z,2.37
2023-03-29T07:07:57.537Z,1.60
2023-03-29T07:10:34.821Z,1.27
2023-03-29T07:13:04.071Z,2.23
2023-03-29T07:15:39.105Z,2.03
2023-03-29T07:18:13.715Z,2.20
2023-03-29T07:20:42.648Z,1.43
2023-03-29T07:23:21.407Z,1.37
2023-03-29T07:25:51.922Z,1.60
2023-03-29T07:28:20.965Z,2.10
2023-03-29T07:30:51.928Z,1.90
2023-03-29T07:33:22.783Z,1.67
2023-03-29T07:35:53.112Z,2.00
2023-03-29T07:38:31.285Z,1.60
2023-03-29T07:41:01.330Z,2.03
2023-03-29T07:43:30.428Z,2.80
2023-03-29T07:46:02.296Z,2.33
2023-03-29T07:48:31.421Z,2.20
2023-03-29T07:51:00.047Z,2.00
2023-03-29T07:53:31.038Z,1.90
2023-03-29T07:56:00.266Z,2.30
2023-03-29T07:58:38.858Z,2.40
2023-03-29T08:01:08.775Z,1.97
2023-03-29T08:03:38.258Z,1.63
2023-03-29T08:06:10.195Z,1.70
2023-03-29T08:08:43.467Z,1.93
2023-03-29T08:11:11.408Z,1.70
2023-03-29T08:13:46.363Z,1.57
2023-03-29T08:16:16.206Z,2.63
2023-03-29T08:18:45.551Z,1.77
2023-03-29T08:21:27.287Z,2.10
2023-03-29T08:24:00.865Z,2.40
2023-03-29T08:26:35.425Z,2.60
2023-03-29T08:29:07.575Z,1.90
2023-03-29T08:31:37.385Z,2.23
2023-03-29T08:34:10.879Z,2.30
2023-03-29T08:36:40.650Z,2.23
2023-03-29T08:39:19.637Z,1.80
2023-03-29T08:41:58.793Z,2.00
2023-03-29T08:44:43.373Z,2.30
2023-03-29T08:47:19.188Z,2.47
2023-03-29T08:49:51.616Z,2.03
2023-03-29T08:52:27.256Z,1.60
2023-03-29T08:55:03.436Z,2.00
2023-03-29T08:57:47.060Z,2.10
2023-03-29T09:00:25.822Z,2.03
2023-03-29T09:03:17.777Z,2.10
2023-03-29T09:05:51.825Z,1.90
2023-03-29T09:08:23.020Z,2.00
2023-03-29T09:11:12.588Z,2.00
2023-03-29T09:13:49.262Z,1.60
2023-03-29T09:16:26.878Z,2.23
2023-03-29T09:19:08.582Z,1.97
2023-03-29T09:21:46.992Z,1.70
2023-03-29T09:24:35.309Z,1.70
2023-03-29T09:27:15.385Z,2.30
2023-03-29T09:29:55.864Z,2.00
2023-03-29T09:32:26.923Z,2.30
2023-03-29T09:35:01.793Z,2.50
2023-03-29T09:37:36.222Z,2.10
2023-03-29T09:40:17.930Z,2.10
2023-03-29T09:42:50.145Z,1.90
2023-03-29T09:45:19.155Z,1.80
2023-03-29T09:47:51.217Z,2.13
2023-03-29T09:50:30.930Z,2.10
2023-03-29T09:53:01.401Z,1.90
2023-03-29T09:55:34.317Z,2.27
2023-03-29T09:58:15.713Z,1.90
2023-03-29T10:00:45.056Z,1.87
2023-03-29T10:03:22.448Z,1.87
2023-03-29T10:05:53.598Z,1.70
2023-03-29T10:08:29.925Z,2.00
2023-03-29T10:11:05.327Z,2.10
2023-03-29T10:13:46.230Z,2.30
2023-03-29T10:16:25.352Z,1.70
2023-03-29T10:18:57.070Z,1.87
2023-03-29T10:21:29.460Z,2.30
2023-03-29T10:24:00.548Z,2.30
2023-03-29T10:26:33.033Z,1.63
2023-03-29T10:29:05.863Z,1.77
2023-03-29T10:31:42.386Z,2.00
2023-03-29T10:34:21.463Z,2.00
2023-03-29T10:37:00.670Z,2.23
2023-03-29T10:39:36.973Z,2.10
2023-03-29T10:42:23.080Z,2.40
2023-03-29T10:45:24.863Z,1.50
2023-03-29T10:48:01.103Z,2.00
2023-03-29T10:50:39.102Z,2.30
2023-03-29T10:53:19.248Z,1.60
2023-03-29T10:55:58.451Z,2.73
2023-03-29T10:58:34.956Z,1.73
2023-03-29T11:01:07.981Z,1.60
2023-03-29T11:04:05.060Z,1.63
2023-03-29T11:06:46.317Z,1.77
2023-03-29T11:09:19.855Z,1.60
2023-03-29T11:12:15.561Z,1.63
2023-03-29T11:15:02.190Z,1.53
2023-03-29T11:17:43.696Z,1.50
2023-03-29T11:20:39.073Z,1.90
2023-03-29T11:23:23.812Z,2.07
2023-03-29T11:26:02.887Z,1.73
2023-03-29T11:28:39.284Z,1.70
2023-03-29T11:31:17.357Z,1.40
2023-03-29T11:34:01.351Z,1.60
2023-03-29T11:36:42.493Z,1.30
2023-03-29T11:39:23.110Z,1.63
2023-03-29T11:41:55.975Z,1.60
2023-03-29T11:44:31.374Z,1.67
2023-03-29T11:47:15.324Z,1.80
2023-03-29T11:49:49.901Z,2.10
2023-03-29T11:52:25.655Z,1.23
2023-03-29T11:54:57.841Z,1.77
2023-03-29T11:57:38.020Z,1.53
2023-03-29T12:00:15.831Z,1.70
2023-03-29T12:02:48.175Z,1.57
2023-03-29T12:05:24.803Z,1.33
2023-03-29T12:08:09.074Z,1.57
2023-03-29T12:10:40.492Z,1.33
2023-03-29T12:13:15.109Z,1.50
2023-03-29T12:15:48.814Z,1.47
2023-03-29T12:18:24.347Z,1.30
2023-03-29T12:20:59.454Z,1.20
2023-03-29T12:23:32.828Z,1.20
2023-03-29T12:26:06.262Z,1.20
2023-03-29T12:28:55.418Z,1.10
2023-03-29T12:31:34.270Z,1.20
2023-03-29T12:34:12.255Z,1.90
2023-03-29T12:37:01.287Z,1.73
2023-03-29T12:39:33.587Z,1.30
2023-03-29T12:42:22.616Z,1.40
2023-03-29T12:45:02.372Z,2.10
2023-03-29T12:47:35.747Z,1.77
2023-03-29T12:50:11.207Z,2.00
2023-03-29T12:52:48.085Z,1.43
2023-03-29T12:55:26.329Z,1.50
2023-03-29T12:58:16.870Z,1.10
2023-03-29T13:00:51.847Z,1.43
2023-03-29T13:03:32.392Z,1.83
2023-03-29T13:06:03.619Z,1.43
2023-03-29T13:08:37.138Z,1.47
2023-03-29T13:11:12.299Z,1.57
2023-03-29T13:13:44.107Z,1.47
2023-03-29T13:16:19.025Z,1.40
2023-03-29T13:18:56.725Z,1.70
2023-03-29T13:21:38.307Z,1.43
2023-03-29T13:24:32.442Z,1.17
2023-03-29T13:27:13.576Z,1.70
2023-03-29T13:29:53.698Z,3.00
2023-03-29T13:32:32.668Z,2.10
2023-03-29T13:35:08.028Z,1.70
2023-03-29T13:37:52.092Z,2.17
2023-03-29T13:40:50.397Z,1.93
2023-03-29T13:43:32.750Z,2.47
2023-03-29T13:46:31.467Z,1.50
2023-03-29T13:49:07.914Z,2.80
2023-03-29T13:51:42.505Z,1.73
2023-03-29T13:54:18.441Z,2.10
2023-03-29T13:56:59.996Z,1.90
2023-03-29T13:59:35.872Z,1.47
2023-03-29T14:02:07.243Z,1.17
2023-03-29T14:04:44.772Z,2.23
2023-03-29T14:07:16.332Z,1.53
2023-03-29T14:10:03.492Z,3.00
2023-03-29T14:12:35.432Z,1.73
2023-03-29T14:15:10.783Z,2.40
2023-03-29T14:17:39.051Z,2.90
2023-03-29T14:20:11.651Z,5.10
2023-03-29T14:22:44.707Z,2.67
2023-03-29T14:25:20.386Z,2.40
2023-03-29T14:27:51.643Z,2.23
2023-03-29T14:30:27.824Z,2.00
2023-03-29T14:32:57.070Z,1.43
2023-03-29T14:35:32.031Z,1.73
2023-03-29T14:38:06.884Z,2.10
2023-03-29T14:40:38.890Z,1.60
2023-03-29T14:43:14.143Z,1.83
2023-03-29T14:45:48.691Z,1.20
2023-03-29T14:48:18.725Z,1.60
2023-03-29T14:50:48.379Z,1.70
2023-03-29T14:53:20.668Z,1.50
2023-03-29T14:55:52.675Z,1.53
2023-03-29T14:58:26.144Z,1.80
2023-03-29T15:01:01.444Z,2.23
2023-03-29T15:03:31.402Z,1.63
2023-03-29T15:06:02.538Z,1.50
2023-03-29T15:08:36.950Z,1.77
2023-03-29T15:11:17.824Z,2.33
2023-03-29T15:13:53.811Z,1.57
2023-03-29T15:16:27.401Z,1.50
2023-03-29T15:18:56.654Z,1.87
2023-03-29T15:21:26.235Z,1.77
2023-03-29T15:24:01.976Z,1.87
2023-03-29T15:26:33.192Z,2.00
2023-03-29T15:29:11.204Z,3.40
2023-03-29T15:31:44.363Z,4.10
2023-03-29T15:34:16.338Z,1.57
2023-03-29T15:36:55.229Z,1.97
2023-03-29T15:39:25.511Z,2.20
2023-03-29T15:41:55.001Z,2.33
2023-03-29T15:44:25.106Z,2.10
2023-03-29T15:47:00.174Z,1.73
2023-03-29T15:49:33.496Z,2.77
2023-03-29T15:52:03.700Z,2.67
2023-03-29T15:54:34.256Z,2.43
2023-03-29T15:57:11.180Z,2.40
2023-03-29T15:59:42.538Z,2.13
2023-03-29T16:02:32.140Z,2.10
2023-03-29T16:05:02.848Z,1.93
2023-03-29T16:07:32.159Z,2.17
2023-03-29T16:10:00.877Z,1.60
2023-03-29T16:12:32.389Z,1.40
2023-03-29T16:15:07.327Z,2.07
2023-03-29T16:17:40.196Z,1.50
2023-03-29T16:20:14.979Z,1.40
2023-03-29T16:22:56.248Z,1.63
2023-03-29T16:25:27.634Z,1.60
2023-03-29T16:27:56.525Z,1.47
2023-03-29T16:30:28.403Z,1.87
2023-03-29T16:33:06.652Z,1.90
2023-03-29T16:38:30.754Z,2.73
2023-03-29T16:41:03.072Z,1.90
2023-03-29T16:43:34.832Z,2.30
2023-03-29T16:46:04.266Z,2.27
2023-03-29T16:48:38.777Z,4.80
2023-03-29T16:53:53.791Z,1.60
2023-03-29T16:56:31.035Z,2.50
2023-03-29T16:59:03.035Z,1.80
2023-03-29T17:01:36.423Z,2.27
2023-03-29T17:04:13.858Z,2.20
2023-03-29T17:06:43.615Z,2.37
2023-03-29T17:09:12.250Z,2.87
2023-03-29T17:11:46.474Z,3.23
2023-03-29T17:14:21.714Z,2.40
2023-03-29T17:16:51.331Z,2.37
2023-03-29T17:19:25.364Z,2.77
2023-03-29T17:21:57.144Z,2.50
2023-03-29T17:24:25.587Z,2.30
2023-03-29T17:26:59.558Z,2.73
2023-03-29T17:29:31.081Z,3.60
2023-03-29T17:32:01.431Z,3.30
2023-03-29T17:34:36.013Z,2.43
2023-03-29T17:37:05.629Z,2.50
2023-03-29T17:39:37.744Z,2.10
2023-03-29T17:42:06.611Z,5.13
2023-03-29T17:44:37.207Z,5.30
2023-03-29T17:47:07.613Z,5.77
2023-03-29T17:49:40.186Z,4.70
2023-03-29T17:52:12.284Z,3.83
2023-03-29T17:54:50.495Z,3.30
2023-03-29T17:57:23.066Z,2.87
2023-03-29T17:59:53.517Z,4.07
2023-03-29T18:02:24.508Z,3.67
2023-03-29T18:05:01.961Z,3.37
2023-03-29T18:07:35.716Z,2.90
2023-03-29T18:10:09.684Z,3.20
2023-03-29T18:12:40.960Z,3.30
2023-03-29T18:15:17.844Z,3.53
2023-03-29T18:17:51.225Z,3.80
2023-03-29T18:20:26.071Z,2.73
2023-03-29T18:22:56.535Z,2.93
2023-03-29T18:25:31.846Z,3.00
2023-03-29T18:28:05.886Z,3.07
2023-03-29T18:30:42.073Z,3.50
2023-03-29T18:33:12.136Z,3.00
2023-03-29T18:35:50.737Z,4.93
2023-03-29T18:38:26.755Z,4.30
2023-03-29T18:40:57.799Z,3.60
2023-03-29T18:43:26.484Z,2.97
2023-03-29T18:45:55.856Z,3.13
2023-03-29T18:48:24.414Z,4.57
2023-03-29T18:50:54.989Z,3.23
2023-03-29T18:53:23.101Z,3.57
2023-03-29T18:55:51.736Z,3.13
2023-03-29T18:58:26.577Z,3.17
2023-03-29T19:01:02.641Z,2.90
2023-03-29T19:03:32.401Z,2.60
2023-03-29T19:06:07.298Z,2.80
2023-03-29T19:08:40.062Z,2.40
2023-03-29T19:11:11.877Z,2.60
2023-03-29T19:13:42.821Z,2.73
2023-03-29T19:16:13.713Z,2.50
2023-03-29T19:18:45.032Z,3.53
2023-03-29T19:21:19.051Z,3.70
2023-03-29T19:23:53.385Z,3.73
2023-03-29T19:26:33.769Z,3.47
2023-03-29T19:29:02.470Z,4.07
2023-03-29T19:31:40.215Z,3.00
2023-03-29T19:34:11.435Z,3.30
2023-03-29T19:36:43.811Z,3.30
2023-03-29T19:39:16.187Z,2.40
2023-03-29T19:41:50.457Z,2.73
2023-03-29T19:44:21.567Z,2.50
2023-03-29T19:46:49.491Z,2.40
2023-03-29T19:49:20.615Z,1.93
2023-03-29T19:51:55.044Z,2.97
2023-03-29T19:54:23.984Z,2.73
2023-03-29T19:56:52.854Z,2.40
2023-03-29T19:59:26.624Z,2.97
2023-03-29T20:01:57.678Z,2.13
2023-03-29T20:04:30.680Z,2.30
2023-03-29T20:07:04.340Z,2.00
2023-03-29T20:09:45.226Z,2.30
2023-03-29T20:12:18.022Z,2.13
2023-03-29T20:14:47.871Z,2.47
2023-03-29T20:17:20.410Z,1.90
2023-03-29T20:19:51.585Z,2.40
2023-03-29T20:22:26.306Z,2.20
2023-03-29T20:24:54.727Z,2.00
2023-03-29T20:27:28.256Z,2.20
2023-03-29T20:29:56.841Z,2.50
2023-03-29T20:32:27.900Z,3.20
2023-03-29T20:34:58.002Z,2.47
2023-03-29T20:37:30.724Z,2.73
2023-03-29T20:39:59.442Z,2.43
2023-03-29T20:42:32.760Z,2.47
2023-03-29T20:45:03.492Z,2.13
2023-03-29T20:47:32.743Z,2.33
2023-03-29T20:50:09.098Z,2.17
2023-03-29T20:52:41.021Z,2.80
2023-03-29T20:55:13.303Z,2.20
2023-03-29T20:57:43.808Z,1.80
2023-03-29T21:00:15.269Z,2.70
2023-03-29T21:02:46.912Z,2.23
2023-03-29T21:05:16.071Z,1.97
2023-03-29T21:07:48.435Z,1.90
2023-03-29T21:10:18.030Z,2.53
2023-03-29T21:12:46.660Z,2.40
2023-03-29T21:15:18.362Z,2.40
2023-03-29T21:17:57.804Z,2.10
2023-03-29T21:20:25.825Z,2.80
2023-03-29T21:22:55.404Z,2.00
2023-03-29T21:25:25.144Z,2.47
2023-03-29T21:28:00.602Z,2.30
2023-03-29T21:30:35.204Z,1.97
2023-03-29T21:33:06.710Z,1.83
2023-03-29T21:35:39.073Z,2.20
2023-03-29T21:38:12.755Z,2.80
2023-03-29T21:40:46.081Z,1.63
2023-03-29T21:43:31.125Z,2.50
2023-03-29T21:46:12.948Z,2.20
2023-03-29T21:48:42.163Z,2.17
2023-03-29T21:51:15.757Z,2.03
2023-03-29T21:53:47.413Z,1.97
2023-03-29T21:56:21.310Z,1.93
2023-03-29T21:58:50.210Z,2.10
2023-03-29T22:01:20.415Z,2.57
2023-03-29T22:03:53.373Z,2.40
2023-03-29T22:06:26.498Z,2.03
2023-03-29T22:09:01.062Z,2.90
2023-03-29T22:11:30.188Z,2.50
2023-03-29T22:14:00.918Z,2.00
2023-03-29T22:16:31.630Z,2.10
2023-03-29T22:19:00.051Z,2.00
2023-03-29T22:21:31.301Z,1.80
2023-03-29T22:24:02.933Z,2.40
2023-03-29T22:26:36.332Z,1.63
2023-03-29T22:29:07.015Z,2.77
2023-03-29T22:31:46.289Z,2.50
2023-03-29T22:34:16.013Z,2.10
2023-03-29T22:36:46.482Z,2.27
2023-03-29T22:39:17.128Z,2.30
2023-03-29T22:41:48.298Z,2.30
2023-03-29T22:44:19.268Z,2.50
2023-03-29T22:46:48.849Z,2.30
2023-03-29T22:49:19.636Z,2.13
2023-03-29T22:51:54.273Z,2.17
2023-03-29T22:54:25.897Z,1.90
2023-03-29T22:57:12.994Z,2.20
2023-03-29T22:59:41.257Z,2.27
2023-03-29T23:02:12.379Z,1.80
2023-03-29T23:04:42.210Z,1.63
2023-03-29T23:07:15.982Z,2.70
2023-03-29T23:09:48.234Z,2.30
2023-03-29T23:12:22.364Z,2.47
2023-03-29T23:14:53.292Z,2.00
2023-03-29T23:17:27.206Z,2.00
2023-03-29T23:19:58.496Z,2.10
2023-03-29T23:22:32.194Z,2.07
2023-03-29T23:25:09.754Z,2.60
2023-03-29T23:27:39.529Z,2.20
2023-03-29T23:30:13.337Z,2.10
2023-03-29T23:32:43.269Z,2.13
2023-03-29T23:35:18.285Z,3.17
2023-03-29T23:37:47.014Z,2.17
2023-03-29T23:40:23.816Z,2.83
2023-03-29T23:42:53.447Z,2.67
2023-03-29T23:45:22.277Z,2.80
2023-03-29T23:47:52.255Z,2.60
2023-03-29T23:50:29.690Z,2.50
2023-03-29T23:53:05.522Z,2.10
2023-03-29T23:55:41.300Z,2.50
2023-03-29T23:58:13.961Z,1.60
